Time,TemperatureF,DewpointF,PressureIn,WindDirection,WindDirectionDegrees,WindSpeedMPH,WindSpeedGustMPH,Humidity,HourlyPrecipIn,Conditions,Clouds,dailyrainin,SoftwareType,DateUTC
2013-06-27 00:00:00,84.0,78.0,-100.00,SE,129,21.0,-999.0,83,0.00,,,-99.99,,2013-06-27 00:00:00,
2013-06-27 00:22:00,84.0,78.0,-100.00,SE,129,21.0,-999.0,83,0.00,,,-99.99,,2013-06-27 00:22:00,
2013-06-27 00:33:00,84.0,78.0,-100.00,SE,129,21.0,-999.0,83,0.00,,,-99.99,,2013-06-27 00:33:00,
2013-06-27 00:42:00,84.0,78.0,-100.00,SE,129,21.0,-999.0,83,0.00,,,-99.99,,2013-06-27 00:42:00,
2013-06-27 00:53:00,84.0,78.0,-100.00,SE,129,21.0,-999.0,83,0.00,,,-99.99,,2013-06-27 00:53:00,
2013-06-27 01:00:00,83.0,78.0,-100.00,SE,135,20.0,-999.0,84,0.00,,,-99.99,,2013-06-27 01:00:00,
2013-06-27 01:21:00,83.0,78.0,-100.00,SE,135,20.0,-999.0,84,0.00,,,-99.99,,2013-06-27 01:21:00,
2013-06-27 01:32:00,83.0,78.0,-100.00,SE,135,20.0,-999.0,84,0.00,,,-99.99,,2013-06-27 01:32:00,
2013-06-27 01:42:00,83.0,78.0,-100.00,SE,135,20.0,-999.0,84,0.00,,,-99.99,,2013-06-27 01:42:00,
2013-06-27 01:53:00,83.0,78.0,-100.00,SE,135,20.0,-999.0,84,0.00,,,-99.99,,2013-06-27 01:53:00,
2013-06-27 02:00:00,83.0,78.0,-100.00,SE,136,21.0,-999.0,84,0.00,,,-99.99,,2013-06-27 02:00:00,
2013-06-27 02:22:00,83.0,78.0,-100.00,SE,136,21.0,-999.0,84,0.00,,,-99.99,,2013-06-27 02:22:00,
2013-06-27 02:32:00,83.0,78.0,-100.00,SE,136,21.0,-999.0,84,0.00,,,-99.99,,2013-06-27 02:32:00,
2013-06-27 02:42:00,83.0,78.0,-100.00,SE,136,21.0,-999.0,84,0.00,,,-99.99,,2013-06-27 02:42:00,
2013-06-27 03:00:00,83.0,78.0,-100.00,SE,141,20.0,-999.0,84,0.00,,,-99.99,,2013-06-27 03:00:00,
2013-06-27 03:21:00,83.0,78.0,-100.00,SE,141,20.0,-999.0,84,0.00,,,-99.99,,2013-06-27 03:21:00,
2013-06-27 03:32:00,83.0,78.0,-100.00,SE,141,20.0,-999.0,84,0.00,,,-99.99,,2013-06-27 03:32:00,
2013-06-27 03:42:00,83.0,78.0,-100.00,SE,141,20.0,-999.0,84,0.00,,,-99.99,,2013-06-27 03:42:00,
2013-06-27 03:52:00,83.0,78.0,-100.00,SE,141,20.0,-999.0,84,0.00,,,-99.99,,2013-06-27 03:52:00,
2013-06-27 04:22:00,83.0,78.0,-100.00,SE,146,20.0,-999.0,84,0.00,,,-99.99,,2013-06-27 04:22:00,
2013-06-27 04:32:00,83.0,78.0,-100.00,SE,146,20.0,-999.0,84,0.00,,,-99.99,,2013-06-27 04:32:00,
2013-06-27 04:42:00,83.0,78.0,-100.00,SE,146,20.0,-999.0,84,0.00,,,-99.99,,2013-06-27 04:42:00,
2013-06-27 04:52:00,83.0,78.0,-100.00,SE,146,20.0,-999.0,84,0.00,,,-99.99,,2013-06-27 04:52:00,
2013-06-27 05:00:00,82.0,77.0,-100.00,SSE,157,19.0,-999.0,84,0.00,,,-99.99,,2013-06-27 05:00:00,
2013-06-27 05:22:00,82.0,77.0,-100.00,SSE,157,19.0,-999.0,84,0.00,,,-99.99,,2013-06-27 05:22:00,
2013-06-27 05:32:00,82.0,77.0,-100.00,SSE,157,19.0,-999.0,84,0.00,,,-99.99,,2013-06-27 05:32:00,
2013-06-27 05:42:00,82.0,77.0,-100.00,SSE,157,19.0,-999.0,84,0.00,,,-99.99,,2013-06-27 05:42:00,
2013-06-27 05:53:00,82.0,77.0,-100.00,SSE,157,19.0,-999.0,84,0.00,,,-99.99,,2013-06-27 05:53:00,
2013-06-27 06:00:00,82.0,77.0,-100.00,SSE,159,18.0,-999.0,84,0.00,,,-99.99,,2013-06-27 06:00:00,
2013-06-27 06:22:00,82.0,77.0,-100.00,SSE,159,18.0,-999.0,84,0.00,,,-99.99,,2013-06-27 06:22:00,
2013-06-27 06:34:00,82.0,77.0,-100.00,SSE,159,18.0,-999.0,84,0.00,,,-99.99,,2013-06-27 06:34:00,
2013-06-27 06:43:00,82.0,77.0,-100.00,SSE,159,18.0,-999.0,84,0.00,,,-99.99,,2013-06-27 06:43:00,
2013-06-27 06:53:00,82.0,77.0,-100.00,SSE,159,18.0,-999.0,84,0.00,,,-99.99,,2013-06-27 06:53:00,
2013-06-27 07:00:00,82.0,77.0,-100.00,SSE,161,17.0,-999.0,84,0.00,,,-99.99,,2013-06-27 07:00:00,
2013-06-27 07:22:00,82.0,77.0,-100.00,SSE,161,17.0,-999.0,84,0.00,,,-99.99,,2013-06-27 07:22:00,
2013-06-27 07:33:00,82.0,77.0,-100.00,SSE,161,17.0,-999.0,84,0.00,,,-99.99,,2013-06-27 07:33:00,
2013-06-27 07:42:00,82.0,77.0,-100.00,SSE,161,17.0,-999.0,84,0.00,,,-99.99,,2013-06-27 07:42:00,
2013-06-27 07:52:00,82.0,77.0,-100.00,SSE,161,17.0,-999.0,84,0.00,,,-99.99,,2013-06-27 07:52:00,
2013-06-27 08:00:00,82.0,77.0,-100.00,South,169,15.0,-999.0,85,0.00,,,-99.99,,2013-06-27 08:00:00,
2013-06-27 08:22:00,82.0,77.0,-100.00,South,169,15.0,-999.0,85,0.00,,,-99.99,,2013-06-27 08:22:00,
2013-06-27 08:34:00,82.0,77.0,-100.00,South,169,15.0,-999.0,85,0.00,,,-99.99,,2013-06-27 08:34:00,
2013-06-27 08:43:00,82.0,77.0,-100.00,South,169,15.0,-999.0,85,0.00,,,-99.99,,2013-06-27 08:43:00,
2013-06-27 08:52:00,82.0,77.0,-100.00,South,169,15.0,-999.0,85,0.00,,,-99.99,,2013-06-27 08:52:00,
2013-06-27 09:00:00,81.0,76.0,-100.00,South,174,15.0,-999.0,84,0.00,,,-99.99,,2013-06-27 09:00:00,
2013-06-27 09:22:00,81.0,76.0,-100.00,South,174,15.0,-999.0,84,0.00,,,-99.99,,2013-06-27 09:22:00,
2013-06-27 09:34:00,81.0,76.0,-100.00,South,174,15.0,-999.0,84,0.00,,,-99.99,,2013-06-27 09:34:00,
2013-06-27 09:43:00,81.0,76.0,-100.00,South,174,15.0,-999.0,84,0.00,,,-99.99,,2013-06-27 09:43:00,
2013-06-27 09:53:00,81.0,76.0,-100.00,South,174,15.0,-999.0,84,0.00,,,-99.99,,2013-06-27 09:53:00,
2013-06-27 10:00:00,81.0,76.0,-100.00,South,186,12.0,-999.0,86,0.00,,,-99.99,,2013-06-27 10:00:00,
2013-06-27 10:22:00,81.0,76.0,-100.00,South,186,12.0,-999.0,86,0.00,,,-99.99,,2013-06-27 10:22:00,
2013-06-27 10:32:00,81.0,76.0,-100.00,South,186,12.0,-999.0,86,0.00,,,-99.99,,2013-06-27 10:32:00,
2013-06-27 10:44:00,81.0,76.0,-100.00,South,186,12.0,-999.0,86,0.00,,,-99.99,,2013-06-27 10:44:00,
2013-06-27 10:54:00,81.0,76.0,-100.00,South,186,12.0,-999.0,86,0.00,,,-99.99,,2013-06-27 10:54:00,
2013-06-27 11:00:00,80.0,76.0,-100.00,South,180,11.0,-999.0,87,0.00,,,-99.99,,2013-06-27 11:00:00,
2013-06-27 11:22:00,80.0,76.0,-100.00,South,180,11.0,-999.0,87,0.00,,,-99.99,,2013-06-27 11:22:00,
2013-06-27 11:33:00,80.0,76.0,-100.00,South,180,11.0,-999.0,87,0.00,,,-99.99,,2013-06-27 11:33:00,
2013-06-27 11:43:00,80.0,76.0,-100.00,South,180,11.0,-999.0,87,0.00,,,-99.99,,2013-06-27 11:43:00,
2013-06-27 11:52:00,80.0,76.0,-100.00,South,180,11.0,-999.0,87,0.00,,,-99.99,,2013-06-27 11:52:00,
2013-06-27 12:00:00,80.0,76.0,-100.00,South,181,9.0,-999.0,87,0.00,,,-99.99,,2013-06-27 12:00:00,
2013-06-27 12:22:00,80.0,76.0,-100.00,South,181,9.0,-999.0,87,0.00,,,-99.99,,2013-06-27 12:22:00,
2013-06-27 12:34:00,80.0,76.0,-100.00,South,181,9.0,-999.0,87,0.00,,,-99.99,,2013-06-27 12:34:00,
2013-06-27 12:42:00,80.0,76.0,-100.00,South,181,9.0,-999.0,87,0.00,,,-99.99,,2013-06-27 12:42:00,
2013-06-27 13:00:00,81.0,75.0,-100.00,South,173,12.0,-999.0,82,0.00,,,-99.99,,2013-06-27 13:00:00,
2013-06-27 13:22:00,81.0,75.0,-100.00,South,173,12.0,-999.0,82,0.00,,,-99.99,,2013-06-27 13:22:00,
2013-06-27 13:34:00,81.0,75.0,-100.00,South,173,12.0,-999.0,82,0.00,,,-99.99,,2013-06-27 13:34:00,
2013-06-27 13:43:00,81.0,75.0,-100.00,South,173,12.0,-999.0,82,0.00,,,-99.99,,2013-06-27 13:43:00,
2013-06-27 13:52:00,81.0,75.0,-100.00,South,173,12.0,-999.0,82,0.00,,,-99.99,,2013-06-27 13:52:00,
2013-06-27 14:22:00,82.0,75.0,-100.00,SSE,165,13.0,-999.0,81,0.00,,,-99.99,,2013-06-27 14:22:00,
2013-06-27 14:33:00,82.0,75.0,-100.00,SSE,165,13.0,-999.0,81,0.00,,,-99.99,,2013-06-27 14:33:00,
2013-06-27 14:43:00,82.0,75.0,-100.00,SSE,165,13.0,-999.0,81,0.00,,,-99.99,,2013-06-27 14:43:00,
2013-06-27 14:52:00,82.0,75.0,-100.00,SSE,165,13.0,-999.0,81,0.00,,,-99.99,,2013-06-27 14:52:00,
2013-06-27 15:00:00,82.0,75.0,-100.00,SE,146,12.0,-999.0,79,0.00,,,-99.99,,2013-06-27 15:00:00,
2013-06-27 15:22:00,82.0,75.0,-100.00,SE,146,12.0,-999.0,79,0.00,,,-99.99,,2013-06-27 15:22:00,
2013-06-27 15:33:00,82.0,75.0,-100.00,SE,146,12.0,-999.0,79,0.00,,,-99.99,,2013-06-27 15:33:00,
2013-06-27 15:42:00,82.0,75.0,-100.00,SE,146,12.0,-999.0,79,0.00,,,-99.99,,2013-06-27 15:42:00,
2013-06-27 15:52:00,82.0,75.0,-100.00,SE,146,12.0,-999.0,79,0.00,,,-99.99,,2013-06-27 15:52:00,
2013-06-27 16:00:00,82.0,75.0,-100.00,SE,134,10.0,-999.0,78,0.00,,,-99.99,,2013-06-27 16:00:00,
2013-06-27 16:23:00,82.0,75.0,-100.00,SE,134,10.0,-999.0,78,0.00,,,-99.99,,2013-06-27 16:23:00,
2013-06-27 16:34:00,82.0,75.0,-100.00,SE,134,10.0,-999.0,78,0.00,,,-99.99,,2013-06-27 16:34:00,
2013-06-27 16:43:00,82.0,75.0,-100.00,SE,134,10.0,-999.0,78,0.00,,,-99.99,,2013-06-27 16:43:00,
2013-06-27 16:53:00,82.0,75.0,-100.00,SE,134,10.0,-999.0,78,0.00,,,-99.99,,2013-06-27 16:53:00,
2013-06-27 17:00:00,83.0,75.0,-100.00,SE,127,9.0,-999.0,76,0.00,,,-99.99,,2013-06-27 17:00:00,
2013-06-27 17:22:00,83.0,75.0,-100.00,SE,127,9.0,-999.0,76,0.00,,,-99.99,,2013-06-27 17:22:00,
2013-06-27 17:33:00,83.0,75.0,-100.00,SE,127,9.0,-999.0,76,0.00,,,-99.99,,2013-06-27 17:33:00,
2013-06-27 17:43:00,83.0,75.0,-100.00,SE,127,9.0,-999.0,76,0.00,,,-99.99,,2013-06-27 17:43:00,
2013-06-27 17:53:00,83.0,75.0,-100.00,SE,127,9.0,-999.0,76,0.00,,,-99.99,,2013-06-27 17:53:00,
2013-06-27 18:22:00,84.0,74.0,-100.00,SE,137,11.0,-999.0,72,0.00,,,-99.99,,2013-06-27 18:22:00,
2013-06-27 18:32:00,84.0,74.0,-100.00,SE,137,11.0,-999.0,72,0.00,,,-99.99,,2013-06-27 18:32:00,
2013-06-27 18:52:00,84.0,74.0,-100.00,SE,137,11.0,-999.0,72,0.00,,,-99.99,,2013-06-27 18:52:00,
2013-06-27 19:23:00,84.0,74.0,-100.00,SE,134,11.0,-999.0,71,0.00,,,-99.99,,2013-06-27 19:23:00,
2013-06-27 20:22:00,84.0,75.0,-100.00,SE,135,13.0,-999.0,74,0.00,,,-99.99,,2013-06-27 20:22:00,
2013-06-27 21:24:00,84.0,75.0,-100.00,SE,136,17.0,-999.0,75,0.00,,,-99.99,,2013-06-27 21:24:00,
2013-06-27 21:45:00,84.0,75.0,-100.00,SE,136,17.0,-999.0,75,0.00,,,-99.99,,2013-06-27 21:45:00,
2013-06-27 22:00:00,84.0,76.0,-100.00,SE,136,18.0,-999.0,77,0.00,,,-99.99,,2013-06-27 22:00:00,
2013-06-27 22:23:00,84.0,76.0,-100.00,SE,136,18.0,-999.0,77,0.00,,,-99.99,,2013-06-27 22:23:00,
2013-06-27 22:34:00,84.0,76.0,-100.00,SE,136,18.0,-999.0,77,0.00,,,-99.99,,2013-06-27 22:34:00,
2013-06-27 22:47:00,84.0,76.0,-100.00,SE,136,18.0,-999.0,77,0.00,,,-99.99,,2013-06-27 22:47:00,
2013-06-27 22:57:00,84.0,76.0,-100.00,SE,136,18.0,-999.0,77,0.00,,,-99.99,,2013-06-27 22:57:00,
2013-06-27 23:00:00,84.0,76.0,-100.00,SE,134,17.0,-999.0,78,0.00,,,-99.99,,2013-06-27 23:00:00,
2013-06-27 23:25:00,84.0,76.0,-100.00,SE,134,17.0,-999.0,78,0.00,,,-99.99,,2013-06-27 23:25:00,
2013-06-27 23:34:00,84.0,76.0,-100.00,SE,134,17.0,-999.0,78,0.00,,,-99.99,,2013-06-27 23:34:00,
2013-06-27 23:45:00,84.0,76.0,-100.00,SE,134,17.0,-999.0,78,0.00,,,-99.99,,2013-06-27 23:45:00,
2013-06-27 23:58:00,84.0,76.0,-100.00,SE,134,17.0,-999.0,78,0.00,,,-99.99,,2013-06-27 23:58:00,